sensor_id;sensor_type;location;lat;lon;timestamp;P1;durP1;ratioP1;P2;durP2;ratioP2
5351;SDS011;2698;51.454;6.736;2023-07-13T00:01:45;6.80;;;2.73;;
5351;SDS011;2698;51.454;6.736;2023-07-13T00:04:15;16.13;;;3.50;;
5351;SDS011;2698;51.454;6.736;2023-07-13T00:06:43;5.20;;;2.07;;
5351;SDS011;2698;51.454;6.736;2023-07-13T00:09:10;17.07;;;3.37;;
5351;SDS011;2698;51.454;6.736;2023-07-13T00:11:38;7.90;;;2.50;;
5351;SDS011;2698;51.454;6.736;2023-07-13T00:14:06;6.63;;;2.00;;
5351;SDS011;2698;51.454;6.736;2023-07-13T00:16:35;6.63;;;2.77;;
5351;SDS011;2698;51.454;6.736;2023-07-13T00:19:02;7.20;;;2.73;;
5351;SDS011;2698;51.454;6.736;2023-07-13T00:21:30;5.60;;;3.00;;
5351;SDS011;2698;51.454;6.736;2023-07-13T00:23:57;12.10;;;2.83;;
5351;SDS011;2698;51.454;6.736;2023-07-13T00:26:26;14.10;;;3.03;;
5351;SDS011;2698;51.454;6.736;2023-07-13T00:28:53;10.90;;;3.27;;
5351;SDS011;2698;51.454;6.736;2023-07-13T00:40:32;15.90;;;5.53;;
5351;SDS011;2698;51.454;6.736;2023-07-13T00:43:00;21.63;;;6.47;;
5351;SDS011;2698;51.454;6.736;2023-07-13T00:48:13;9.33;;;3.27;;
5351;SDS011;2698;51.454;6.736;2023-07-13T00:50:41;5.47;;;2.67;;
5351;SDS011;2698;51.454;6.736;2023-07-13T00:53:10;23.23;;;1.93;;
5351;SDS011;2698;51.454;6.736;2023-07-13T00:55:38;7.23;;;2.23;;
5351;SDS011;2698;51.454;6.736;2023-07-13T00:58:06;6.80;;;2.73;;
5351;SDS011;2698;51.454;6.736;2023-07-13T01:00:33;8.03;;;2.20;;
5351;SDS011;2698;51.454;6.736;2023-07-13T01:03:01;7.23;;;2.40;;
5351;SDS011;2698;51.454;6.736;2023-07-13T01:05:30;7.10;;;2.20;;
5351;SDS011;2698;51.454;6.736;2023-07-13T01:07:57;7.50;;;2.60;;
5351;SDS011;2698;51.454;6.736;2023-07-13T01:10:26;10.40;;;2.67;;
5351;SDS011;2698;51.454;6.736;2023-07-13T01:12:55;3.77;;;2.20;;
5351;SDS011;2698;51.454;6.736;2023-07-13T01:15:33;12.50;;;2.10;;
5351;SDS011;2698;51.454;6.736;2023-07-13T01:18:01;5.90;;;2.70;;
5351;SDS011;2698;51.454;6.736;2023-07-13T01:20:29;6.33;;;2.33;;
5351;SDS011;2698;51.454;6.736;2023-07-13T01:22:57;10.87;;;2.60;;
5351;SDS011;2698;51.454;6.736;2023-07-13T01:25:25;6.10;;;2.73;;
5351;SDS011;2698;51.454;6.736;2023-07-13T01:27:52;3.50;;;2.30;;
5351;SDS011;2698;51.454;6.736;2023-07-13T01:30:19;4.97;;;2.60;;
5351;SDS011;2698;51.454;6.736;2023-07-13T01:32:46;9.47;;;2.50;;
5351;SDS011;2698;51.454;6.736;2023-07-13T01:35:13;7.43;;;2.37;;
5351;SDS011;2698;51.454;6.736;2023-07-13T01:37:41;5.60;;;2.20;;
5351;SDS011;2698;51.454;6.736;2023-07-13T01:40:11;2.57;;;1.97;;
5351;SDS011;2698;51.454;6.736;2023-07-13T01:42:39;11.13;;;3.43;;
5351;SDS011;2698;51.454;6.736;2023-07-13T01:45:06;9.23;;;2.70;;
5351;SDS011;2698;51.454;6.736;2023-07-13T01:47:34;11.13;;;2.77;;
5351;SDS011;2698;51.454;6.736;2023-07-13T01:50:01;9.10;;;2.40;;
5351;SDS011;2698;51.454;6.736;2023-07-13T01:52:28;3.60;;;2.37;;
5351;SDS011;2698;51.454;6.736;2023-07-13T01:54:55;4.20;;;2.93;;
5351;SDS011;2698;51.454;6.736;2023-07-13T01:57:24;10.57;;;3.00;;
5351;SDS011;2698;51.454;6.736;2023-07-13T01:59:51;8.43;;;3.43;;
5351;SDS011;2698;51.454;6.736;2023-07-13T02:02:18;5.23;;;2.40;;
5351;SDS011;2698;51.454;6.736;2023-07-13T02:04:45;10.30;;;2.97;;
5351;SDS011;2698;51.454;6.736;2023-07-13T02:07:12;8.40;;;2.43;;
5351;SDS011;2698;51.454;6.736;2023-07-13T02:09:40;4.80;;;2.07;;
5351;SDS011;2698;51.454;6.736;2023-07-13T02:12:08;7.00;;;2.77;;
5351;SDS011;2698;51.454;6.736;2023-07-13T02:14:37;10.70;;;2.73;;
5351;SDS011;2698;51.454;6.736;2023-07-13T02:17:04;6.17;;;2.30;;
5351;SDS011;2698;51.454;6.736;2023-07-13T02:19:31;3.90;;;2.30;;
5351;SDS011;2698;51.454;6.736;2023-07-13T02:21:58;4.77;;;2.43;;
5351;SDS011;2698;51.454;6.736;2023-07-13T02:24:26;6.80;;;2.27;;
5351;SDS011;2698;51.454;6.736;2023-07-13T02:26:53;9.40;;;2.00;;
5351;SDS011;2698;51.454;6.736;2023-07-13T02:29:20;12.70;;;3.00;;
5351;SDS011;2698;51.454;6.736;2023-07-13T02:31:49;16.13;;;2.30;;
5351;SDS011;2698;51.454;6.736;2023-07-13T02:34:16;10.40;;;2.43;;
5351;SDS011;2698;51.454;6.736;2023-07-13T02:36:43;8.07;;;2.10;;
5351;SDS011;2698;51.454;6.736;2023-07-13T02:39:11;10.17;;;2.83;;
5351;SDS011;2698;51.454;6.736;2023-07-13T02:41:38;8.23;;;3.37;;
5351;SDS011;2698;51.454;6.736;2023-07-13T02:44:06;13.17;;;2.97;;
5351;SDS011;2698;51.454;6.736;2023-07-13T02:46:34;14.63;;;2.80;;
5351;SDS011;2698;51.454;6.736;2023-07-13T02:49:04;4.27;;;2.00;;
5351;SDS011;2698;51.454;6.736;2023-07-13T02:51:31;10.47;;;3.10;;
5351;SDS011;2698;51.454;6.736;2023-07-13T02:53:59;8.60;;;2.20;;
5351;SDS011;2698;51.454;6.736;2023-07-13T02:56:27;5.77;;;2.60;;
5351;SDS011;2698;51.454;6.736;2023-07-13T02:58:54;5.80;;;2.40;;
5351;SDS011;2698;51.454;6.736;2023-07-13T03:01:21;4.03;;;2.60;;
5351;SDS011;2698;51.454;6.736;2023-07-13T03:03:49;6.47;;;2.33;;
5351;SDS011;2698;51.454;6.736;2023-07-13T03:06:18;2.97;;;2.27;;
5351;SDS011;2698;51.454;6.736;2023-07-13T03:08:46;9.37;;;2.47;;
5351;SDS011;2698;51.454;6.736;2023-07-13T03:11:16;5.47;;;2.70;;
5351;SDS011;2698;51.454;6.736;2023-07-13T03:13:43;6.50;;;2.43;;
5351;SDS011;2698;51.454;6.736;2023-07-13T03:16:11;6.10;;;2.40;;
5351;SDS011;2698;51.454;6.736;2023-07-13T03:18:39;6.57;;;2.23;;
5351;SDS011;2698;51.454;6.736;2023-07-13T03:21:06;11.73;;;2.33;;
5351;SDS011;2698;51.454;6.736;2023-07-13T03:23:35;8.13;;;2.80;;
5351;SDS011;2698;51.454;6.736;2023-07-13T03:26:03;6.27;;;2.30;;
5351;SDS011;2698;51.454;6.736;2023-07-13T03:28:30;20.37;;;2.77;;
5351;SDS011;2698;51.454;6.736;2023-07-13T03:31:01;14.23;;;2.70;;
5351;SDS011;2698;51.454;6.736;2023-07-13T03:33:28;10.70;;;2.30;;
5351;SDS011;2698;51.454;6.736;2023-07-13T03:35:56;7.33;;;2.53;;
5351;SDS011;2698;51.454;6.736;2023-07-13T03:38:23;9.17;;;1.97;;
5351;SDS011;2698;51.454;6.736;2023-07-13T03:40:52;16.40;;;3.17;;
5351;SDS011;2698;51.454;6.736;2023-07-13T03:43:20;6.03;;;2.20;;
5351;SDS011;2698;51.454;6.736;2023-07-13T03:45:47;10.83;;;2.87;;
5351;SDS011;2698;51.454;6.736;2023-07-13T03:48:14;18.33;;;2.67;;
5351;SDS011;2698;51.454;6.736;2023-07-13T03:50:41;7.50;;;2.60;;
5351;SDS011;2698;51.454;6.736;2023-07-13T03:53:09;11.10;;;3.30;;
5351;SDS011;2698;51.454;6.736;2023-07-13T03:55:36;3.43;;;3.10;;
5351;SDS011;2698;51.454;6.736;2023-07-13T04:00:46;5.80;;;2.77;;
5351;SDS011;2698;51.454;6.736;2023-07-13T04:03:13;5.80;;;2.30;;
5351;SDS011;2698;51.454;6.736;2023-07-13T04:05:41;12.53;;;3.67;;
5351;SDS011;2698;51.454;6.736;2023-07-13T04:08:08;8.77;;;2.80;;
5351;SDS011;2698;51.454;6.736;2023-07-13T04:10:35;6.90;;;2.77;;
5351;SDS011;2698;51.454;6.736;2023-07-13T04:13:03;5.33;;;2.83;;
5351;SDS011;2698;51.454;6.736;2023-07-13T04:15:31;7.63;;;2.57;;
5351;SDS011;2698;51.454;6.736;2023-07-13T04:17:59;6.90;;;3.10;;
5351;SDS011;2698;51.454;6.736;2023-07-13T04:20:28;7.30;;;2.90;;
5351;SDS011;2698;51.454;6.736;2023-07-13T04:22:55;10.67;;;2.83;;
5351;SDS011;2698;51.454;6.736;2023-07-13T04:25:23;14.83;;;4.33;;
5351;SDS011;2698;51.454;6.736;2023-07-13T04:27:50;12.97;;;3.20;;
5351;SDS011;2698;51.454;6.736;2023-07-13T04:30:18;8.43;;;3.20;;
5351;SDS011;2698;51.454;6.736;2023-07-13T04:32:45;7.17;;;2.43;;
5351;SDS011;2698;51.454;6.736;2023-07-13T04:35:14;7.10;;;2.97;;
5351;SDS011;2698;51.454;6.736;2023-07-13T04:37:41;9.73;;;2.43;;
5351;SDS011;2698;51.454;6.736;2023-07-13T04:40:08;9.03;;;3.27;;
5351;SDS011;2698;51.454;6.736;2023-07-13T04:42:37;6.27;;;2.50;;
5351;SDS011;2698;51.454;6.736;2023-07-13T04:45:05;12.60;;;3.20;;
5351;SDS011;2698;51.454;6.736;2023-07-13T04:47:32;7.93;;;2.50;;
5351;SDS011;2698;51.454;6.736;2023-07-13T04:50:00;25.83;;;4.73;;
5351;SDS011;2698;51.454;6.736;2023-07-13T04:52:28;9.07;;;3.43;;
5351;SDS011;2698;51.454;6.736;2023-07-13T04:54:55;11.43;;;3.50;;
5351;SDS011;2698;51.454;6.736;2023-07-13T04:57:22;9.83;;;3.40;;
5351;SDS011;2698;51.454;6.736;2023-07-13T04:59:50;9.60;;;2.90;;
5351;SDS011;2698;51.454;6.736;2023-07-13T05:02:17;6.03;;;2.47;;
5351;SDS011;2698;51.454;6.736;2023-07-13T05:04:46;14.13;;;3.23;;
5351;SDS011;2698;51.454;6.736;2023-07-13T05:07:13;7.03;;;2.60;;
5351;SDS011;2698;51.454;6.736;2023-07-13T05:09:42;9.90;;;2.67;;
5351;SDS011;2698;51.454;6.736;2023-07-13T05:12:09;8.23;;;3.50;;
5351;SDS011;2698;51.454;6.736;2023-07-13T05:14:37;11.90;;;5.30;;
5351;SDS011;2698;51.454;6.736;2023-07-13T05:17:04;14.40;;;3.20;;
5351;SDS011;2698;51.454;6.736;2023-07-13T05:19:31;10.10;;;3.57;;
5351;SDS011;2698;51.454;6.736;2023-07-13T05:21:59;10.13;;;3.60;;
5351;SDS011;2698;51.454;6.736;2023-07-13T05:24:27;8.10;;;3.37;;
5351;SDS011;2698;51.454;6.736;2023-07-13T05:26:56;6.63;;;3.13;;
5351;SDS011;2698;51.454;6.736;2023-07-13T05:29:23;5.23;;;2.90;;
5351;SDS011;2698;51.454;6.736;2023-07-13T05:31:50;10.13;;;3.00;;
5351;SDS011;2698;51.454;6.736;2023-07-13T05:34:17;11.30;;;3.77;;
5351;SDS011;2698;51.454;6.736;2023-07-13T05:36:44;11.17;;;3.60;;
5351;SDS011;2698;51.454;6.736;2023-07-13T05:39:12;11.33;;;3.30;;
5351;SDS011;2698;51.454;6.736;2023-07-13T05:41:39;7.23;;;3.37;;
5351;SDS011;2698;51.454;6.736;2023-07-13T05:44:08;9.00;;;3.60;;
5351;SDS011;2698;51.454;6.736;2023-07-13T05:46:35;17.00;;;4.87;;
5351;SDS011;2698;51.454;6.736;2023-07-13T05:49:02;18.60;;;5.20;;
5351;SDS011;2698;51.454;6.736;2023-07-13T05:51:29;12.20;;;5.40;;
5351;SDS011;2698;51.454;6.736;2023-07-13T05:53:56;17.60;;;5.37;;
5351;SDS011;2698;51.454;6.736;2023-07-13T05:56:24;16.90;;;6.27;;
5351;SDS011;2698;51.454;6.736;2023-07-13T05:58:51;18.03;;;4.27;;
5351;SDS011;2698;51.454;6.736;2023-07-13T06:01:20;22.47;;;5.93;;
5351;SDS011;2698;51.454;6.736;2023-07-13T06:03:48;14.03;;;4.57;;
5351;SDS011;2698;51.454;6.736;2023-07-13T06:06:16;17.80;;;5.30;;
5351;SDS011;2698;51.454;6.736;2023-07-13T06:08:43;13.10;;;4.80;;
5351;SDS011;2698;51.454;6.736;2023-07-13T06:11:12;17.03;;;6.00;;
5351;SDS011;2698;51.454;6.736;2023-07-13T06:13:40;8.47;;;4.10;;
5351;SDS011;2698;51.454;6.736;2023-07-13T06:16:07;14.60;;;4.27;;
5351;SDS011;2698;51.454;6.736;2023-07-13T06:18:36;7.77;;;4.20;;
5351;SDS011;2698;51.454;6.736;2023-07-13T06:21:07;18.97;;;5.50;;
5351;SDS011;2698;51.454;6.736;2023-07-13T06:23:35;20.50;;;4.97;;
5351;SDS011;2698;51.454;6.736;2023-07-13T06:26:02;19.00;;;5.30;;
5351;SDS011;2698;51.454;6.736;2023-07-13T06:28:30;17.47;;;5.97;;
5351;SDS011;2698;51.454;6.736;2023-07-13T06:30:58;21.03;;;5.03;;
5351;SDS011;2698;51.454;6.736;2023-07-13T06:33:25;15.50;;;4.90;;
5351;SDS011;2698;51.454;6.736;2023-07-13T06:35:53;13.00;;;4.90;;
5351;SDS011;2698;51.454;6.736;2023-07-13T06:38:21;14.20;;;4.23;;
5351;SDS011;2698;51.454;6.736;2023-07-13T06:40:48;19.73;;;4.80;;
5351;SDS011;2698;51.454;6.736;2023-07-13T06:43:15;26.07;;;5.80;;
5351;SDS011;2698;51.454;6.736;2023-07-13T06:45:44;16.53;;;4.83;;
5351;SDS011;2698;51.454;6.736;2023-07-13T06:48:12;12.67;;;4.73;;
5351;SDS011;2698;51.454;6.736;2023-07-13T06:50:40;9.90;;;4.03;;
5351;SDS011;2698;51.454;6.736;2023-07-13T06:53:09;21.60;;;4.50;;
5351;SDS011;2698;51.454;6.736;2023-07-13T06:55:36;6.83;;;4.23;;
5351;SDS011;2698;51.454;6.736;2023-07-13T06:58:03;9.73;;;4.30;;
5351;SDS011;2698;51.454;6.736;2023-07-13T07:00:31;13.10;;;4.40;;
5351;SDS011;2698;51.454;6.736;2023-07-13T07:02:58;19.27;;;4.13;;
5351;SDS011;2698;51.454;6.736;2023-07-13T07:05:25;12.10;;;4.17;;
5351;SDS011;2698;51.454;6.736;2023-07-13T07:07:53;9.63;;;4.70;;
5351;SDS011;2698;51.454;6.736;2023-07-13T07:10:22;15.50;;;5.50;;
5351;SDS011;2698;51.454;6.736;2023-07-13T07:12:49;12.60;;;5.20;;
5351;SDS011;2698;51.454;6.736;2023-07-13T07:15:16;9.23;;;4.73;;
5351;SDS011;2698;51.454;6.736;2023-07-13T07:17:44;20.37;;;4.90;;
5351;SDS011;2698;51.454;6.736;2023-07-13T07:20:11;12.77;;;5.00;;
5351;SDS011;2698;51.454;6.736;2023-07-13T07:22:39;19.33;;;5.03;;
5351;SDS011;2698;51.454;6.736;2023-07-13T07:25:06;22.70;;;5.70;;
5351;SDS011;2698;51.454;6.736;2023-07-13T07:27:35;12.07;;;4.63;;
5351;SDS011;2698;51.454;6.736;2023-07-13T07:30:02;16.30;;;4.67;;
5351;SDS011;2698;51.454;6.736;2023-07-13T07:32:29;7.23;;;4.53;;
5351;SDS011;2698;51.454;6.736;2023-07-13T07:34:57;6.17;;;4.03;;
5351;SDS011;2698;51.454;6.736;2023-07-13T07:37:24;11.70;;;4.87;;
5351;SDS011;2698;51.454;6.736;2023-07-13T07:39:51;16.03;;;3.97;;
5351;SDS011;2698;51.454;6.736;2023-07-13T07:42:19;13.63;;;5.20;;
5351;SDS011;2698;51.454;6.736;2023-07-13T07:44:47;15.90;;;5.60;;
5351;SDS011;2698;51.454;6.736;2023-07-13T07:47:14;11.43;;;4.20;;
5351;SDS011;2698;51.454;6.736;2023-07-13T07:49:42;19.30;;;4.87;;
5351;SDS011;2698;51.454;6.736;2023-07-13T07:52:09;8.97;;;4.23;;
5351;SDS011;2698;51.454;6.736;2023-07-13T07:54:36;19.57;;;4.70;;
5351;SDS011;2698;51.454;6.736;2023-07-13T07:57:03;16.70;;;5.40;;
5351;SDS011;2698;51.454;6.736;2023-07-13T07:59:31;23.50;;;5.27;;
5351;SDS011;2698;51.454;6.736;2023-07-13T08:01:59;10.53;;;4.20;;
5351;SDS011;2698;51.454;6.736;2023-07-13T08:04:27;10.57;;;5.20;;
5351;SDS011;2698;51.454;6.736;2023-07-13T08:06:55;14.00;;;4.57;;
5351;SDS011;2698;51.454;6.736;2023-07-13T08:09:22;12.43;;;5.17;;
5351;SDS011;2698;51.454;6.736;2023-07-13T08:11:50;16.87;;;6.00;;
5351;SDS011;2698;51.454;6.736;2023-07-13T08:14:17;15.03;;;4.70;;
5351;SDS011;2698;51.454;6.736;2023-07-13T08:16:44;16.27;;;5.43;;
5351;SDS011;2698;51.454;6.736;2023-07-13T08:19:13;11.70;;;4.93;;
5351;SDS011;2698;51.454;6.736;2023-07-13T08:21:40;20.67;;;5.17;;
5351;SDS011;2698;51.454;6.736;2023-07-13T08:24:08;11.70;;;5.37;;
5351;SDS011;2698;51.454;6.736;2023-07-13T08:26:35;11.10;;;3.90;;
5351;SDS011;2698;51.454;6.736;2023-07-13T08:29:03;10.87;;;3.83;;
5351;SDS011;2698;51.454;6.736;2023-07-13T08:31:30;13.07;;;4.50;;
5351;SDS011;2698;51.454;6.736;2023-07-13T08:33:57;9.73;;;4.10;;
5351;SDS011;2698;51.454;6.736;2023-07-13T08:36:26;13.10;;;4.30;;
5351;SDS011;2698;51.454;6.736;2023-07-13T08:38:53;16.73;;;5.30;;
5351;SDS011;2698;51.454;6.736;2023-07-13T08:41:21;9.13;;;4.10;;
5351;SDS011;2698;51.454;6.736;2023-07-13T08:43:49;7.97;;;3.27;;
5351;SDS011;2698;51.454;6.736;2023-07-13T08:46:17;11.57;;;4.90;;
5351;SDS011;2698;51.454;6.736;2023-07-13T08:48:46;10.77;;;4.93;;
5351;SDS011;2698;51.454;6.736;2023-07-13T08:51:20;12.10;;;4.70;;
5351;SDS011;2698;51.454;6.736;2023-07-13T08:53:50;8.53;;;4.23;;
5351;SDS011;2698;51.454;6.736;2023-07-13T08:56:18;18.33;;;4.53;;
5351;SDS011;2698;51.454;6.736;2023-07-13T08:58:46;15.80;;;4.60;;
5351;SDS011;2698;51.454;6.736;2023-07-13T09:01:16;9.20;;;4.33;;
5351;SDS011;2698;51.454;6.736;2023-07-13T09:03:46;11.50;;;4.57;;
5351;SDS011;2698;51.454;6.736;2023-07-13T09:06:17;12.97;;;4.10;;
5351;SDS011;2698;51.454;6.736;2023-07-13T09:08:47;11.40;;;4.30;;
5351;SDS011;2698;51.454;6.736;2023-07-13T09:11:26;15.30;;;5.20;;
5351;SDS011;2698;51.454;6.736;2023-07-13T09:13:57;18.33;;;4.60;;
5351;SDS011;2698;51.454;6.736;2023-07-13T09:16:27;12.53;;;5.00;;
5351;SDS011;2698;51.454;6.736;2023-07-13T09:18:56;19.00;;;5.20;;
5351;SDS011;2698;51.454;6.736;2023-07-13T09:21:27;14.10;;;5.17;;
5351;SDS011;2698;51.454;6.736;2023-07-13T09:23:56;12.93;;;4.13;;
5351;SDS011;2698;51.454;6.736;2023-07-13T09:26:28;13.27;;;5.03;;
5351;SDS011;2698;51.454;6.736;2023-07-13T09:28:57;9.83;;;4.80;;
5351;SDS011;2698;51.454;6.736;2023-07-13T09:31:26;9.50;;;4.93;;
5351;SDS011;2698;51.454;6.736;2023-07-13T09:33:56;13.90;;;5.17;;
5351;SDS011;2698;51.454;6.736;2023-07-13T09:36:24;10.60;;;4.03;;
5351;SDS011;2698;51.454;6.736;2023-07-13T09:38:55;18.20;;;4.40;;
5351;SDS011;2698;51.454;6.736;2023-07-13T09:41:26;7.17;;;4.17;;
5351;SDS011;2698;51.454;6.736;2023-07-13T09:46:39;9.77;;;4.67;;
5351;SDS011;2698;51.454;6.736;2023-07-13T09:49:08;9.93;;;4.87;;
5351;SDS011;2698;51.454;6.736;2023-07-13T09:51:36;10.73;;;4.63;;
5351;SDS011;2698;51.454;6.736;2023-07-13T09:54:04;12.77;;;4.37;;
5351;SDS011;2698;51.454;6.736;2023-07-13T09:56:31;13.73;;;4.43;;
5351;SDS011;2698;51.454;6.736;2023-07-13T09:58:58;10.10;;;4.13;;
5351;SDS011;2698;51.454;6.736;2023-07-13T10:01:32;11.13;;;4.57;;
5351;SDS011;2698;51.454;6.736;2023-07-13T10:04:02;11.67;;;3.90;;
5351;SDS011;2698;51.454;6.736;2023-07-13T10:06:29;7.97;;;3.93;;
5351;SDS011;2698;51.454;6.736;2023-07-13T10:08:56;11.80;;;4.47;;
5351;SDS011;2698;51.454;6.736;2023-07-13T10:11:26;10.67;;;3.53;;
5351;SDS011;2698;51.454;6.736;2023-07-13T10:13:55;7.00;;;3.47;;
5351;SDS011;2698;51.454;6.736;2023-07-13T10:16:23;10.00;;;3.80;;
5351;SDS011;2698;51.454;6.736;2023-07-13T10:18:51;4.20;;;3.20;;
5351;SDS011;2698;51.454;6.736;2023-07-13T10:21:22;8.23;;;3.97;;
5351;SDS011;2698;51.454;6.736;2023-07-13T10:23:51;7.73;;;3.80;;
5351;SDS011;2698;51.454;6.736;2023-07-13T10:26:21;8.30;;;4.33;;
5351;SDS011;2698;51.454;6.736;2023-07-13T10:28:51;15.03;;;4.63;;
5351;SDS011;2698;51.454;6.736;2023-07-13T10:31:20;21.87;;;3.77;;
5351;SDS011;2698;51.454;6.736;2023-07-13T10:33:48;19.53;;;3.90;;
5351;SDS011;2698;51.454;6.736;2023-07-13T10:36:17;8.77;;;3.73;;
5351;SDS011;2698;51.454;6.736;2023-07-13T10:38:48;5.63;;;3.17;;
5351;SDS011;2698;51.454;6.736;2023-07-13T10:41:18;10.63;;;3.30;;
5351;SDS011;2698;51.454;6.736;2023-07-13T10:43:46;14.30;;;3.80;;
5351;SDS011;2698;51.454;6.736;2023-07-13T10:46:16;15.30;;;4.40;;
5351;SDS011;2698;51.454;6.736;2023-07-13T10:48:44;6.77;;;3.90;;
5351;SDS011;2698;51.454;6.736;2023-07-13T10:51:14;9.23;;;3.50;;
5351;SDS011;2698;51.454;6.736;2023-07-13T10:53:42;7.77;;;2.90;;
5351;SDS011;2698;51.454;6.736;2023-07-13T10:56:19;8.00;;;3.70;;
5351;SDS011;2698;51.454;6.736;2023-07-13T10:58:48;10.60;;;4.00;;
5351;SDS011;2698;51.454;6.736;2023-07-13T11:01:27;7.67;;;3.90;;
5351;SDS011;2698;51.454;6.736;2023-07-13T11:04:08;8.50;;;3.60;;
5351;SDS011;2698;51.454;6.736;2023-07-13T11:06:39;10.57;;;3.17;;
5351;SDS011;2698;51.454;6.736;2023-07-13T11:09:19;7.70;;;3.60;;
5351;SDS011;2698;51.454;6.736;2023-07-13T11:11:48;7.83;;;3.17;;
5351;SDS011;2698;51.454;6.736;2023-07-13T11:14:29;10.07;;;3.53;;
5351;SDS011;2698;51.454;6.736;2023-07-13T11:16:57;8.13;;;3.60;;
5351;SDS011;2698;51.454;6.736;2023-07-13T11:19:38;7.60;;;3.17;;
5351;SDS011;2698;51.454;6.736;2023-07-13T11:22:13;8.00;;;3.00;;
5351;SDS011;2698;51.454;6.736;2023-07-13T11:24:50;8.73;;;2.80;;
5351;SDS011;2698;51.454;6.736;2023-07-13T11:27:35;13.03;;;3.97;;
5351;SDS011;2698;51.454;6.736;2023-07-13T11:30:06;7.80;;;3.13;;
5351;SDS011;2698;51.454;6.736;2023-07-13T11:32:34;4.23;;;2.40;;
5351;SDS011;2698;51.454;6.736;2023-07-13T11:35:01;6.67;;;2.60;;
5351;SDS011;2698;51.454;6.736;2023-07-13T11:37:29;9.20;;;3.20;;
5351;SDS011;2698;51.454;6.736;2023-07-13T11:39:57;10.87;;;2.97;;
5351;SDS011;2698;51.454;6.736;2023-07-13T11:42:25;10.47;;;2.60;;
5351;SDS011;2698;51.454;6.736;2023-07-13T11:44:52;7.27;;;3.00;;
5351;SDS011;2698;51.454;6.736;2023-07-13T11:47:21;11.00;;;3.33;;
5351;SDS011;2698;51.454;6.736;2023-07-13T11:49:51;4.00;;;2.40;;
5351;SDS011;2698;51.454;6.736;2023-07-13T11:52:21;6.10;;;2.60;;
5351;SDS011;2698;51.454;6.736;2023-07-13T11:54:49;9.17;;;2.97;;
5351;SDS011;2698;51.454;6.736;2023-07-13T11:57:23;9.80;;;2.00;;
5351;SDS011;2698;51.454;6.736;2023-07-13T11:59:53;9.53;;;3.40;;
5351;SDS011;2698;51.454;6.736;2023-07-13T12:02:28;6.93;;;2.60;;
5351;SDS011;2698;51.454;6.736;2023-07-13T12:04:56;12.47;;;3.27;;
5351;SDS011;2698;51.454;6.736;2023-07-13T12:07:23;6.83;;;3.47;;
5351;SDS011;2698;51.454;6.736;2023-07-13T12:09:51;5.07;;;2.43;;
5351;SDS011;2698;51.454;6.736;2023-07-13T12:12:18;3.77;;;2.73;;
5351;SDS011;2698;51.454;6.736;2023-07-13T12:14:46;5.47;;;2.20;;
5351;SDS011;2698;51.454;6.736;2023-07-13T12:17:15;9.63;;;2.87;;
5351;SDS011;2698;51.454;6.736;2023-07-13T12:19:43;7.00;;;3.17;;
5351;SDS011;2698;51.454;6.736;2023-07-13T12:22:11;5.73;;;3.30;;
5351;SDS011;2698;51.454;6.736;2023-07-13T12:24:39;8.97;;;3.03;;
5351;SDS011;2698;51.454;6.736;2023-07-13T12:27:14;7.23;;;3.20;;
5351;SDS011;2698;51.454;6.736;2023-07-13T12:29:49;4.63;;;3.10;;
5351;SDS011;2698;51.454;6.736;2023-07-13T12:32:18;5.83;;;2.90;;
5351;SDS011;2698;51.454;6.736;2023-07-13T12:34:52;12.07;;;3.60;;
5351;SDS011;2698;51.454;6.736;2023-07-13T12:37:19;9.07;;;3.33;;
5351;SDS011;2698;51.454;6.736;2023-07-13T12:39:47;9.77;;;2.90;;
5351;SDS011;2698;51.454;6.736;2023-07-13T12:42:18;3.40;;;2.77;;
5351;SDS011;2698;51.454;6.736;2023-07-13T12:44:48;4.83;;;2.80;;
5351;SDS011;2698;51.454;6.736;2023-07-13T12:47:19;10.87;;;2.60;;
5351;SDS011;2698;51.454;6.736;2023-07-13T12:49:47;4.00;;;2.53;;
5351;SDS011;2698;51.454;6.736;2023-07-13T12:52:16;8.23;;;2.70;;
5351;SDS011;2698;51.454;6.736;2023-07-13T12:54:52;7.27;;;2.87;;
5351;SDS011;2698;51.454;6.736;2023-07-13T12:57:22;21.37;;;2.93;;
5351;SDS011;2698;51.454;6.736;2023-07-13T12:59:51;12.53;;;2.80;;
5351;SDS011;2698;51.454;6.736;2023-07-13T13:02:23;5.37;;;2.57;;
5351;SDS011;2698;51.454;6.736;2023-07-13T13:04:53;13.23;;;3.20;;
5351;SDS011;2698;51.454;6.736;2023-07-13T13:07:22;4.40;;;2.73;;
5351;SDS011;2698;51.454;6.736;2023-07-13T13:09:50;5.70;;;2.20;;
5351;SDS011;2698;51.454;6.736;2023-07-13T13:12:19;4.30;;;2.93;;
5351;SDS011;2698;51.454;6.736;2023-07-13T13:14:46;6.60;;;2.27;;
5351;SDS011;2698;51.454;6.736;2023-07-13T13:17:16;6.17;;;3.00;;
5351;SDS011;2698;51.454;6.736;2023-07-13T13:19:46;6.03;;;3.00;;
5351;SDS011;2698;51.454;6.736;2023-07-13T13:22:13;5.87;;;2.60;;
5351;SDS011;2698;51.454;6.736;2023-07-13T13:24:40;5.23;;;2.50;;
5351;SDS011;2698;51.454;6.736;2023-07-13T13:27:10;4.60;;;2.47;;
5351;SDS011;2698;51.454;6.736;2023-07-13T13:29:41;10.27;;;2.90;;
5351;SDS011;2698;51.454;6.736;2023-07-13T13:32:09;8.10;;;2.40;;
5351;SDS011;2698;51.454;6.736;2023-07-13T13:34:38;5.00;;;2.27;;
5351;SDS011;2698;51.454;6.736;2023-07-13T13:37:10;11.20;;;2.40;;
5351;SDS011;2698;51.454;6.736;2023-07-13T13:39:43;14.97;;;3.67;;
5351;SDS011;2698;51.454;6.736;2023-07-13T13:42:11;6.43;;;2.90;;
5351;SDS011;2698;51.454;6.736;2023-07-13T13:44:38;4.60;;;2.93;;
5351;SDS011;2698;51.454;6.736;2023-07-13T13:47:07;12.10;;;2.80;;
5351;SDS011;2698;51.454;6.736;2023-07-13T13:49:44;11.53;;;3.80;;
5351;SDS011;2698;51.454;6.736;2023-07-13T13:52:13;8.57;;;4.60;;
5351;SDS011;2698;51.454;6.736;2023-07-13T13:54:40;18.90;;;4.60;;
5351;SDS011;2698;51.454;6.736;2023-07-13T13:57:08;11.27;;;4.00;;
5351;SDS011;2698;51.454;6.736;2023-07-13T13:59:37;7.70;;;4.07;;
5351;SDS011;2698;51.454;6.736;2023-07-13T14:02:09;12.00;;;4.67;;
5351;SDS011;2698;51.454;6.736;2023-07-13T14:04:37;11.30;;;4.73;;
5351;SDS011;2698;51.454;6.736;2023-07-13T14:07:05;8.57;;;4.13;;
5351;SDS011;2698;51.454;6.736;2023-07-13T14:09:33;6.67;;;4.30;;
5351;SDS011;2698;51.454;6.736;2023-07-13T14:12:00;11.27;;;5.03;;
5351;SDS011;2698;51.454;6.736;2023-07-13T14:14:28;18.10;;;5.67;;
5351;SDS011;2698;51.454;6.736;2023-07-13T14:16:55;12.10;;;5.20;;
5351;SDS011;2698;51.454;6.736;2023-07-13T14:19:23;7.83;;;4.27;;
5351;SDS011;2698;51.454;6.736;2023-07-13T14:21:50;6.50;;;3.97;;
5351;SDS011;2698;51.454;6.736;2023-07-13T14:24:18;15.37;;;4.40;;
5351;SDS011;2698;51.454;6.736;2023-07-13T14:26:47;10.93;;;4.03;;
5351;SDS011;2698;51.454;6.736;2023-07-13T14:29:15;8.80;;;3.77;;
5351;SDS011;2698;51.454;6.736;2023-07-13T14:31:43;5.93;;;3.60;;
5351;SDS011;2698;51.454;6.736;2023-07-13T14:34:10;14.23;;;3.80;;
5351;SDS011;2698;51.454;6.736;2023-07-13T14:36:40;8.87;;;4.10;;
5351;SDS011;2698;51.454;6.736;2023-07-13T14:39:11;8.20;;;3.70;;
5351;SDS011;2698;51.454;6.736;2023-07-13T14:41:38;5.10;;;3.27;;
5351;SDS011;2698;51.454;6.736;2023-07-13T14:44:12;11.60;;;4.10;;
5351;SDS011;2698;51.454;6.736;2023-07-13T14:46:39;7.43;;;3.07;;
5351;SDS011;2698;51.454;6.736;2023-07-13T14:49:09;7.90;;;3.40;;
5351;SDS011;2698;51.454;6.736;2023-07-13T14:51:40;6.70;;;3.10;;
5351;SDS011;2698;51.454;6.736;2023-07-13T14:54:08;6.67;;;2.70;;
5351;SDS011;2698;51.454;6.736;2023-07-13T14:56:36;10.57;;;3.17;;
5351;SDS011;2698;51.454;6.736;2023-07-13T14:59:03;7.63;;;4.17;;
5351;SDS011;2698;51.454;6.736;2023-07-13T15:01:33;9.90;;;3.43;;
5351;SDS011;2698;51.454;6.736;2023-07-13T15:04:01;9.27;;;3.90;;
5351;SDS011;2698;51.454;6.736;2023-07-13T15:06:29;13.80;;;3.10;;
5351;SDS011;2698;51.454;6.736;2023-07-13T15:08:56;5.80;;;3.40;;
5351;SDS011;2698;51.454;6.736;2023-07-13T15:11:23;16.33;;;4.83;;
5351;SDS011;2698;51.454;6.736;2023-07-13T15:13:51;12.13;;;3.47;;
5351;SDS011;2698;51.454;6.736;2023-07-13T15:16:18;9.77;;;3.80;;
5351;SDS011;2698;51.454;6.736;2023-07-13T15:18:50;7.60;;;3.33;;
5351;SDS011;2698;51.454;6.736;2023-07-13T15:21:18;9.07;;;3.93;;
5351;SDS011;2698;51.454;6.736;2023-07-13T15:23:46;9.97;;;4.03;;
5351;SDS011;2698;51.454;6.736;2023-07-13T15:26:14;6.87;;;3.97;;
5351;SDS011;2698;51.454;6.736;2023-07-13T15:28:42;10.10;;;3.53;;
5351;SDS011;2698;51.454;6.736;2023-07-13T15:31:16;8.10;;;4.10;;
5351;SDS011;2698;51.454;6.736;2023-07-13T15:33:44;6.10;;;3.67;;